Time;durP1;ratioP1;P1;durP2;ratioP2;P2;SDS_P1;SDS_P2;PMS_P1;PMS_P2;Temp;Humidity;BMP_temperature;BMP_pressure;BME280_temperature;BME280_humidity;BME280_pressure;Samples;Min_cycle;Max_cycle;Signal;HPM_P1;HPM_P2
2023/08/03 00:00:48;;;;;;;3.43;0.93;;;13.60;99.90;;;;;;5076283;28;20231;-80
2023/08/03 00:03:14;;;;;;;2.83;1.00;;;13.70;99.90;;;;;;5078034;28;20226;-80
2023/08/03 00:05:41;;;;;;;2.60;0.80;;;13.70;99.90;;;;;;5089443;28;20231;-80
2023/08/03 00:08:09;;;;;;;3.57;1.07;;;13.70;99.90;;;;;;5094814;28;20227;-80
2023/08/03 00:10:37;;;;;;;2.90;1.00;;;13.80;99.90;;;;;;5077457;28;20221;-80
2023/08/03 00:13:04;;;;;;;3.13;0.90;;;13.80;99.90;;;;;;5091478;28;20237;-80
2023/08/03 00:15:31;;;;;;;3.90;1.20;;;13.80;99.90;;;;;;5088893;28;20229;-79
2023/08/03 00:17:57;;;;;;;2.37;1.10;;;13.80;99.90;;;;;;5094934;28;20309;-80
2023/08/03 00:20:24;;;;;;;3.77;1.17;;;13.90;99.90;;;;;;5092604;28;20239;-80
2023/08/03 00:22:51;;;;;;;2.37;1.10;;;13.90;99.90;;;;;;5093137;28;20250;-80
2023/08/03 00:25:19;;;;;;;5.17;1.23;;;13.90;99.90;;;;;;5074269;28;20224;-80
2023/08/03 00:27:45;;;;;;;3.07;0.90;;;13.90;99.90;;;;;;5076527;28;20223;-81
2023/08/03 00:30:12;;;;;;;2.27;0.90;;;13.90;99.90;;;;;;5065130;28;20644;-80
2023/08/03 00:32:39;;;;;;;6.07;1.10;;;13.90;99.90;;;;;;5103483;28;20229;-80
2023/08/03 00:35:07;;;;;;;5.47;1.33;;;13.90;99.90;;;;;;5091510;28;20713;-80
2023/08/03 00:37:37;;;;;;;3.50;1.00;;;13.90;99.90;;;;;;5087170;28;20280;-80
2023/08/03 00:40:04;;;;;;;5.13;1.10;;;13.90;99.90;;;;;;5093267;28;20249;-80
2023/08/03 00:42:33;;;;;;;3.17;1.23;;;14.00;99.90;;;;;;5075769;28;20233;-80
2023/08/03 00:45:00;;;;;;;4.50;1.10;;;14.00;99.90;;;;;;5076228;28;20229;-79
2023/08/03 00:47:27;;;;;;;3.57;1.07;;;14.00;99.90;;;;;;5079185;28;20235;-79
2023/08/03 00:49:54;;;;;;;3.77;1.23;;;14.10;99.90;;;;;;5072163;28;20231;-79
2023/08/03 00:52:23;;;;;;;3.27;1.23;;;14.00;99.90;;;;;;5067835;28;20220;-80
2023/08/03 00:54:50;;;;;;;6.13;1.77;;;14.10;99.90;;;;;;5083956;28;20225;-80
2023/08/03 00:57:17;;;;;;;4.80;1.30;;;14.10;99.90;;;;;;5070634;28;20328;-79
2023/08/03 00:59:45;;;;;;;4.00;1.20;;;14.10;99.90;;;;;;5073265;28;20244;-79
2023/08/03 01:02:12;;;;;;;4.53;1.40;;;14.10;99.90;;;;;;5076013;28;20769;-79
2023/08/03 01:04:39;;;;;;;5.53;1.47;;;14.20;99.90;;;;;;5080136;28;20757;-79
2023/08/03 01:07:07;;;;;;;4.63;1.30;;;14.20;99.90;;;;;;5063664;28;20224;-79
2023/08/03 01:09:33;;;;;;;5.03;1.57;;;14.20;99.90;;;;;;5066895;28;20245;-79
2023/08/03 01:12:00;;;;;;;4.50;1.97;;;14.30;99.90;;;;;;5074423;28;20284;-79
2023/08/03 01:14:27;;;;;;;3.73;1.50;;;14.20;99.90;;;;;;5066699;28;20316;-79
2023/08/03 01:16:56;;;;;;;5.80;1.50;;;14.30;99.90;;;;;;5106522;28;20245;-79
2023/08/03 01:19:23;;;;;;;4.57;1.47;;;14.30;99.90;;;;;;5073690;28;20226;-79
2023/08/03 01:21:51;;;;;;;4.83;1.53;;;14.30;99.90;;;;;;5095298;28;20311;-79
2023/08/03 01:24:19;;;;;;;2.53;1.40;;;14.40;99.90;;;;;;5074178;28;20225;-80
2023/08/03 01:26:46;;;;;;;3.27;1.40;;;14.40;99.90;;;;;;5068954;28;20347;-79
2023/08/03 01:29:15;;;;;;;3.23;1.33;;;14.40;99.90;;;;;;5069552;28;20231;-79
2023/08/03 01:31:42;;;;;;;3.33;1.43;;;14.50;99.90;;;;;;5064521;28;20768;-80
2023/08/03 01:34:12;;;;;;;5.53;1.60;;;14.50;99.90;;;;;;5069409;28;20227;-79
2023/08/03 01:36:39;;;;;;;3.10;1.53;;;14.50;99.90;;;;;;5076587;28;20230;-79
2023/08/03 01:39:07;;;;;;;4.67;1.83;;;14.50;99.90;;;;;;5104213;28;20846;-79
2023/08/03 01:41:35;;;;;;;3.87;1.80;;;14.50;99.90;;;;;;5072657;28;20234;-79
2023/08/03 01:44:20;;;;;;;3.20;1.43;;;14.50;99.90;;;;;;5097986;28;20311;-78
2023/08/03 01:46:47;;;;;;;4.77;1.73;;;14.50;99.90;;;;;;5092053;28;20230;-79
2023/08/03 01:49:14;;;;;;;3.43;1.90;;;14.50;99.90;;;;;;5094933;28;20292;-79
2023/08/03 01:51:40;;;;;;;2.97;1.57;;;14.50;99.90;;;;;;5094447;28;20237;-79
2023/08/03 01:54:07;;;;;;;2.10;1.43;;;14.60;99.90;;;;;;5094659;28;20249;-79
2023/08/03 01:56:35;;;;;;;3.30;1.50;;;14.60;99.90;;;;;;5084708;28;20749;-79
2023/08/03 01:59:02;;;;;;;3.83;1.63;;;14.60;99.90;;;;;;5070436;28;20325;-80
2023/08/03 02:01:29;;;;;;;2.30;1.30;;;14.60;99.90;;;;;;5069168;28;20708;-80
2023/08/03 02:03:56;;;;;;;4.53;1.70;;;14.60;99.90;;;;;;5069762;28;20256;-80
2023/08/03 02:06:24;;;;;;;4.10;1.57;;;14.60;99.90;;;;;;5083225;28;20216;-80
2023/08/03 02:08:50;;;;;;;4.27;1.73;;;14.60;99.90;;;;;;5069234;28;20248;-80
2023/08/03 02:11:19;;;;;;;3.37;1.80;;;14.60;99.90;;;;;;5076493;28;20226;-80
2023/08/03 02:13:47;;;;;;;3.47;1.50;;;14.60;99.90;;;;;;5077792;28;20762;-80
2023/08/03 02:16:15;;;;;;;3.30;1.67;;;14.60;99.90;;;;;;5093059;28;20228;-80
2023/08/03 02:18:42;;;;;;;4.97;2.10;;;14.60;99.90;;;;;;5093464;28;20244;-80
2023/08/03 02:21:09;;;;;;;4.17;1.63;;;14.60;99.90;;;;;;5068808;28;20226;-80
2023/08/03 02:23:36;;;;;;;6.13;1.90;;;14.60;99.90;;;;;;5070539;28;20219;-80
2023/08/03 02:26:03;;;;;;;4.33;1.70;;;14.60;99.90;;;;;;5063013;28;20211;-79
2023/08/03 02:28:30;;;;;;;5.57;1.90;;;14.60;99.90;;;;;;5101749;28;20232;-80
2023/08/03 02:30:58;;;;;;;5.43;1.80;;;14.60;99.90;;;;;;5088236;28;20212;-79
2023/08/03 02:33:29;;;;;;;4.30;1.80;;;14.60;99.90;;;;;;5073096;28;20305;-79
2023/08/03 02:35:56;;;;;;;4.23;1.60;;;14.60;99.90;;;;;;5069980;28;20234;-79
2023/08/03 02:38:24;;;;;;;3.73;1.40;;;14.60;99.90;;;;;;5071313;28;20769;-80
2023/08/03 02:40:52;;;;;;;5.93;1.50;;;14.70;99.90;;;;;;5067169;28;20229;-79
2023/08/03 02:43:19;;;;;;;6.03;1.77;;;14.70;99.90;;;;;;5066749;28;20226;-79
2023/08/03 02:45:46;;;;;;;2.77;1.50;;;14.70;99.90;;;;;;5078858;28;20286;-79
2023/08/03 02:48:14;;;;;;;3.40;1.53;;;14.70;99.90;;;;;;5066508;28;20928;-79
2023/08/03 02:50:41;;;;;;;5.00;1.77;;;14.70;99.90;;;;;;5079819;28;20230;-80
2023/08/03 02:53:11;;;;;;;7.50;1.97;;;14.60;99.90;;;;;;5066453;28;20218;-80
2023/08/03 02:55:43;;;;;;;5.63;2.13;;;14.60;99.90;;;;;;5064537;28;20648;-79
2023/08/03 02:58:09;;;;;;;6.10;1.60;;;14.70;99.90;;;;;;5089751;28;20233;-79
2023/08/03 03:00:36;;;;;;;5.73;1.83;;;14.70;99.90;;;;;;5071402;28;20228;-81
2023/08/03 03:03:03;;;;;;;1.97;1.50;;;14.70;99.90;;;;;;5089137;28;20719;-79
2023/08/03 03:05:39;;;;;;;6.97;1.70;;;14.70;99.90;;;;;;5070684;28;20225;-79
2023/08/03 03:08:07;;;;;;;6.87;2.00;;;14.70;99.90;;;;;;5066045;28;20712;-79
2023/08/03 03:10:35;;;;;;;5.60;1.80;;;14.60;99.90;;;;;;5071231;28;20227;-78
2023/08/03 03:13:02;;;;;;;5.93;1.80;;;14.70;99.90;;;;;;5065978;28;20223;-80
2023/08/03 03:15:29;;;;;;;7.90;2.20;;;14.60;99.90;;;;;;5065825;28;20228;-79
2023/08/03 03:17:56;;;;;;;4.93;2.03;;;14.60;99.90;;;;;;5067513;28;20223;-79
2023/08/03 03:20:25;;;;;;;6.63;1.93;;;14.60;99.90;;;;;;5070076;28;20249;-78
2023/08/03 03:22:54;;;;;;;3.63;1.77;;;14.60;99.90;;;;;;5054717;28;20250;-79
2023/08/03 03:25:21;;;;;;;4.57;1.80;;;14.60;99.90;;;;;;5085184;28;20450;-79
2023/08/03 03:27:48;;;;;;;3.40;1.90;;;14.50;99.90;;;;;;5070533;28;20221;-79
2023/08/03 03:30:16;;;;;;;5.03;2.17;;;14.50;99.90;;;;;;5063123;28;20273;-79
2023/08/03 03:32:44;;;;;;;4.37;1.70;;;14.50;99.90;;;;;;5068434;28;20785;-78
2023/08/03 03:35:11;;;;;;;4.87;1.70;;;14.50;99.90;;;;;;5077344;28;20225;-78
2023/08/03 03:37:38;;;;;;;7.07;1.97;;;14.50;99.90;;;;;;5056369;28;20221;-78
2023/08/03 03:40:08;;;;;;;5.73;2.10;;;14.50;99.90;;;;;;5055446;28;20316;-78
2023/08/03 03:42:41;;;;;;;5.23;1.77;;;14.50;99.90;;;;;;5056891;28;20323;-77
2023/08/03 03:45:09;;;;;;;3.20;1.80;;;14.50;99.90;;;;;;5065975;28;20225;-78
2023/08/03 03:47:37;;;;;;;2.43;1.43;;;14.50;99.90;;;;;;5065770;28;20746;-78
2023/08/03 03:50:06;;;;;;;3.90;2.10;;;14.50;99.90;;;;;;5053688;28;20266;-78
2023/08/03 03:52:33;;;;;;;5.23;1.90;;;14.60;99.90;;;;;;5065595;28;20677;-78
2023/08/03 03:55:00;;;;;;;7.70;2.13;;;14.50;99.90;;;;;;5066518;28;20251;-79
2023/08/03 03:57:29;;;;;;;5.27;2.07;;;14.50;99.90;;;;;;5078605;28;20233;-80
2023/08/03 03:59:56;;;;;;;3.63;1.67;;;14.60;99.90;;;;;;5075415;28;20221;-79
2023/08/03 04:02:23;;;;;;;4.77;2.10;;;14.60;99.90;;;;;;5064259;28;20229;-78
2023/08/03 04:04:50;;;;;;;3.47;1.77;;;14.60;99.90;;;;;;5079411;28;20223;-79
2023/08/03 04:07:17;;;;;;;4.57;1.50;;;14.60;99.90;;;;;;5072037;28;20276;-80
2023/08/03 04:09:44;;;;;;;5.27;1.77;;;14.60;99.90;;;;;;5067054;28;20224;-80
2023/08/03 04:12:11;;;;;;;6.53;1.63;;;14.60;99.90;;;;;;5061541;28;20231;-80
2023/08/03 04:14:39;;;;;;;4.40;1.77;;;14.60;99.90;;;;;;5067952;28;20225;-80
2023/08/03 04:17:07;;;;;;;4.30;1.50;;;14.60;99.90;;;;;;5072080;28;20239;-80
2023/08/03 04:19:34;;;;;;;5.17;1.40;;;14.70;99.90;;;;;;5062449;28;20328;-79
2023/08/03 04:22:01;;;;;;;7.00;2.07;;;14.60;99.90;;;;;;5060123;28;20226;-80
2023/08/03 04:24:30;;;;;;;3.73;1.60;;;14.60;99.90;;;;;;5059300;28;20312;-79
2023/08/03 04:26:58;;;;;;;5.50;1.70;;;14.70;99.90;;;;;;5064180;28;20296;-79
2023/08/03 04:29:25;;;;;;;3.83;1.60;;;14.70;99.90;;;;;;5081539;28;20227;-78
2023/08/03 04:31:54;;;;;;;3.70;1.33;;;14.70;99.90;;;;;;5080449;28;20225;-78
2023/08/03 04:34:22;;;;;;;4.17;1.57;;;14.70;99.90;;;;;;5057788;28;20215;-79
2023/08/03 04:36:54;;;;;;;3.93;1.60;;;14.70;99.90;;;;;;5066309;28;20961;-80
2023/08/03 04:39:21;;;;;;;3.77;1.70;;;14.80;99.90;;;;;;5066012;28;20616;-79
2023/08/03 04:41:48;;;;;;;6.70;1.53;;;14.80;99.90;;;;;;5065883;28;21017;-80
2023/08/03 04:44:17;;;;;;;5.80;1.77;;;14.70;99.90;;;;;;5064329;28;20232;-80
2023/08/03 04:46:44;;;;;;;8.73;1.80;;;14.70;99.90;;;;;;5062721;28;20805;-79
2023/08/03 04:49:13;;;;;;;4.10;1.70;;;14.70;99.90;;;;;;5061757;28;20219;-79
2023/08/03 04:51:46;;;;;;;2.47;1.30;;;14.70;99.90;;;;;;5065174;28;20262;-79
2023/08/03 04:54:16;;;;;;;6.70;1.50;;;14.70;99.90;;;;;;5065207;28;20637;-79
2023/08/03 04:56:43;;;;;;;3.80;1.40;;;14.70;99.90;;;;;;5082550;28;20224;-79
2023/08/03 04:59:10;;;;;;;2.93;1.60;;;14.70;99.90;;;;;;5066121;28;20236;-79
2023/08/03 05:01:37;;;;;;;4.93;1.50;;;14.70;99.90;;;;;;5063330;28;20313;-79
2023/08/03 05:04:04;;;;;;;4.33;1.50;;;14.70;99.90;;;;;;5083029;28;20236;-79
2023/08/03 05:06:32;;;;;;;3.87;1.30;;;14.70;99.90;;;;;;5064924;28;20264;-79
2023/08/03 05:09:00;;;;;;;5.27;1.40;;;14.70;99.90;;;;;;5062373;28;20252;-79
2023/08/03 05:11:29;;;;;;;3.73;1.40;;;14.70;99.90;;;;;;5067915;28;20232;-80
2023/08/03 05:13:55;;;;;;;5.10;1.53;;;14.70;99.90;;;;;;5063895;28;20314;-79
2023/08/03 05:16:24;;;;;;;2.93;1.20;;;14.70;99.90;;;;;;5063662;28;20230;-80
2023/08/03 05:18:51;;;;;;;5.73;1.57;;;14.70;99.90;;;;;;5062049;28;20237;-80
2023/08/03 05:21:19;;;;;;;6.73;1.50;;;14.70;99.90;;;;;;5062555;28;20222;-79
2023/08/03 05:23:47;;;;;;;4.17;1.20;;;14.70;99.90;;;;;;5061835;28;20228;-79
2023/08/03 05:26:14;;;;;;;4.87;1.20;;;14.60;99.90;;;;;;5074110;28;20358;-80
2023/08/03 05:28:41;;;;;;;3.57;1.50;;;14.60;99.90;;;;;;5080314;28;20229;-79
2023/08/03 05:31:08;;;;;;;3.67;1.30;;;14.70;99.90;;;;;;5081210;28;20987;-80
2023/08/03 05:33:35;;;;;;;4.83;1.53;;;14.70;99.90;;;;;;5080194;28;20273;-79
2023/08/03 05:36:03;;;;;;;3.20;1.30;;;14.60;99.90;;;;;;5066053;28;20226;-79
2023/08/03 05:38:30;;;;;;;4.17;1.90;;;14.70;99.90;;;;;;5079556;28;20228;-79
2023/08/03 05:40:58;;;;;;;3.53;1.47;;;14.70;99.90;;;;;;5062399;28;20241;-79
2023/08/03 05:43:27;;;;;;;3.33;1.60;;;14.70;99.90;;;;;;5083524;28;20309;-79
2023/08/03 05:46:00;;;;;;;1.93;1.33;;;14.70;99.90;;;;;;5082156;28;20593;-78
2023/08/03 05:48:30;;;;;;;4.63;1.60;;;14.80;99.90;;;;;;5081013;28;20260;-79
2023/08/03 05:50:57;;;;;;;3.73;1.33;;;14.80;99.90;;;;;;5082952;28;20235;-79
2023/08/03 05:53:25;;;;;;;7.23;1.60;;;14.90;99.90;;;;;;5080152;28;20812;-78
2023/08/03 05:55:51;;;;;;;4.20;1.30;;;14.90;99.90;;;;;;5061590;28;20227;-80
2023/08/03 05:58:20;;;;;;;3.00;1.30;;;14.90;99.90;;;;;;5061872;28;20223;-80
2023/08/03 06:00:49;;;;;;;4.53;1.47;;;14.90;99.90;;;;;;5059752;28;20234;-80
2023/08/03 06:03:18;;;;;;;4.03;1.50;;;15.00;99.90;;;;;;5066099;28;20228;-79
2023/08/03 06:05:46;;;;;;;2.70;1.13;;;15.00;99.90;;;;;;5064693;28;20230;-79
2023/08/03 06:08:17;;;;;;;2.30;1.13;;;15.00;99.90;;;;;;5065763;28;20220;-79
2023/08/03 06:10:44;;;;;;;3.17;1.20;;;15.00;99.90;;;;;;5081997;28;20233;-80
2023/08/03 06:13:13;;;;;;;3.10;1.20;;;15.00;99.90;;;;;;5082895;28;20303;-79
2023/08/03 06:15:43;;;;;;;2.50;1.17;;;15.10;99.90;;;;;;5079193;28;20232;-78
2023/08/03 06:18:11;;;;;;;3.70;1.00;;;15.10;99.90;;;;;;5079772;28;20360;-79
2023/08/03 06:20:42;;;;;;;4.33;1.07;;;15.10;99.90;;;;;;5079907;28;20239;-79
2023/08/03 06:23:16;;;;;;;4.23;1.10;;;15.20;99.90;;;;;;5064404;28;20608;-79
2023/08/03 06:25:43;;;;;;;1.83;0.97;;;15.10;99.90;;;;;;5063798;28;20242;-79
2023/08/03 06:28:11;;;;;;;1.87;0.80;;;15.20;99.90;;;;;;5080940;28;20231;-79
2023/08/03 06:30:38;;;;;;;2.97;0.90;;;15.30;99.90;;;;;;5066977;28;20611;-79
2023/08/03 06:33:09;;;;;;;3.53;1.13;;;15.30;99.90;;;;;;5081898;28;20315;-79
2023/08/03 06:35:38;;;;;;;2.37;1.10;;;15.30;99.90;;;;;;5078834;28;20300;-79
2023/08/03 06:38:05;;;;;;;1.00;0.90;;;15.30;99.90;;;;;;5081875;28;20322;-79
2023/08/03 06:40:32;;;;;;;3.50;1.00;;;15.30;99.90;;;;;;5079918;28;20327;-79
2023/08/03 06:42:59;;;;;;;1.57;0.80;;;15.40;99.90;;;;;;5062465;28;20778;-79
2023/08/03 06:45:26;;;;;;;1.80;0.93;;;15.40;99.90;;;;;;5080695;28;20239;-79
2023/08/03 06:47:53;;;;;;;2.00;1.00;;;15.40;99.90;;;;;;5079971;28;20822;-79
2023/08/03 06:50:21;;;;;;;1.73;1.03;;;15.40;99.90;;;;;;5065740;28;20240;-80
2023/08/03 06:52:48;;;;;;;2.37;1.00;;;15.50;99.90;;;;;;5079566;28;20225;-79
2023/08/03 06:55:15;;;;;;;1.77;0.90;;;15.50;99.90;;;;;;5082968;28;20917;-79
2023/08/03 06:57:42;;;;;;;1.00;0.80;;;15.50;99.90;;;;;;5082109;28;20215;-79
2023/08/03 07:00:11;;;;;;;1.80;0.90;;;15.60;99.90;;;;;;5083829;28;20312;-79
2023/08/03 07:02:37;;;;;;;1.27;0.80;;;15.70;99.90;;;;;;5084671;28;20271;-79
2023/08/03 07:05:05;;;;;;;2.47;0.97;;;15.70;99.90;;;;;;5067235;28;20236;-79
2023/08/03 07:07:33;;;;;;;1.57;0.97;;;15.80;99.90;;;;;;5061574;28;20232;-79
2023/08/03 07:10:00;;;;;;;1.03;0.93;;;15.90;99.90;;;;;;5081053;28;20727;-79
2023/08/03 07:12:27;;;;;;;2.07;0.90;;;16.00;99.90;;;;;;5081836;28;20217;-79
2023/08/03 07:14:54;;;;;;;1.13;0.80;;;16.10;99.90;;;;;;5084393;28;20216;-79
2023/08/03 07:17:21;;;;;;;1.17;0.73;;;16.10;99.90;;;;;;5075213;28;20267;-79
2023/08/03 07:19:50;;;;;;;0.93;0.60;;;16.20;99.90;;;;;;5081299;28;20222;-79
2023/08/03 07:22:17;;;;;;;2.17;0.70;;;16.20;99.90;;;;;;5060241;28;20640;-80
2023/08/03 07:24:45;;;;;;;1.87;0.57;;;16.30;99.90;;;;;;5081575;28;20221;-80
2023/08/03 07:27:12;;;;;;;2.50;0.70;;;16.30;99.90;;;;;;5058908;28;20253;-80
2023/08/03 07:29:38;;;;;;;0.70;0.70;;;16.30;99.90;;;;;;5063930;28;20713;-80
2023/08/03 07:32:05;;;;;;;1.23;0.57;;;16.40;99.90;;;;;;5062268;28;20318;-80
2023/08/03 07:34:32;;;;;;;1.27;0.67;;;16.40;99.90;;;;;;5084413;28;20226;-80
2023/08/03 07:37:00;;;;;;;0.97;0.70;;;16.40;99.90;;;;;;5080374;28;20242;-79
2023/08/03 07:39:27;;;;;;;2.97;1.10;;;16.30;99.90;;;;;;5084742;28;20259;-79
2023/08/03 07:41:55;;;;;;;1.47;0.70;;;16.30;99.90;;;;;;5082308;28;20222;-80
2023/08/03 07:44:21;;;;;;;1.37;0.67;;;16.30;99.90;;;;;;5074803;28;20298;-80
2023/08/03 07:46:48;;;;;;;8.43;1.30;;;16.30;99.90;;;;;;5082269;28;20240;-81
2023/08/03 07:49:15;;;;;;;2.03;0.70;;;16.30;99.90;;;;;;5063283;28;20222;-81
2023/08/03 07:51:42;;;;;;;10.77;1.67;;;16.30;99.90;;;;;;5084243;28;20315;-82
2023/08/03 07:54:08;;;;;;;1.13;0.80;;;16.30;99.90;;;;;;5085540;28;20224;-80
2023/08/03 07:56:35;;;;;;;1.07;0.60;;;16.30;99.90;;;;;;5074444;28;20231;-79
2023/08/03 07:59:04;;;;;;;1.30;0.80;;;16.20;99.90;;;;;;5083526;28;20258;-79
2023/08/03 08:01:32;;;;;;;1.23;0.80;;;16.20;99.90;;;;;;5081415;28;20230;-79
2023/08/03 08:03:59;;;;;;;1.80;0.83;;;16.20;99.90;;;;;;5065838;28;20224;-79
2023/08/03 08:06:25;;;;;;;0.70;0.70;;;16.20;99.90;;;;;;5087436;28;20244;-79
2023/08/03 08:08:52;;;;;;;0.90;0.70;;;16.20;99.90;;;;;;5061282;28;20262;-79
2023/08/03 08:11:20;;;;;;;2.37;0.80;;;16.20;99.90;;;;;;5086538;28;20221;-79
2023/08/03 08:13:46;;;;;;;1.37;1.00;;;16.20;99.90;;;;;;5088368;28;20224;-80
2023/08/03 08:16:16;;;;;;;0.83;0.83;;;16.20;99.90;;;;;;5084375;28;20231;-79
2023/08/03 08:18:42;;;;;;;2.03;0.90;;;16.30;99.90;;;;;;5086220;28;20244;-79
2023/08/03 08:21:11;;;;;;;1.43;0.87;;;16.20;99.90;;;;;;5066169;28;20843;-79
2023/08/03 08:23:39;;;;;;;0.90;0.80;;;16.30;99.90;;;;;;5087365;28;20646;-79
2023/08/03 08:26:10;;;;;;;2.00;0.90;;;16.30;99.90;;;;;;5086607;28;20332;-79
2023/08/03 08:28:37;;;;;;;2.57;1.00;;;16.40;99.90;;;;;;5083264;28;20225;-79
2023/08/03 08:31:03;;;;;;;3.23;1.10;;;16.40;99.90;;;;;;5065459;28;20310;-79
2023/08/03 08:33:31;;;;;;;1.57;1.00;;;16.50;99.90;;;;;;5082877;28;20217;-79
2023/08/03 08:35:58;;;;;;;0.93;0.90;;;16.50;99.90;;;;;;5062196;28;20345;-79
2023/08/03 08:38:25;;;;;;;1.17;1.07;;;16.50;99.90;;;;;;5063966;28;20228;-79
2023/08/03 08:40:51;;;;;;;3.83;1.13;;;16.50;99.90;;;;;;5087169;28;20226;-80
2023/08/03 08:43:20;;;;;;;1.50;1.27;;;16.50;99.90;;;;;;5084327;28;20220;-79
2023/08/03 08:45:47;;;;;;;1.23;1.03;;;16.50;99.90;;;;;;5086026;28;20288;-79
2023/08/03 08:48:14;;;;;;;2.40;1.17;;;16.50;99.90;;;;;;5081562;28;20233;-79
2023/08/03 08:50:43;;;;;;;1.90;0.90;;;16.50;99.90;;;;;;5068359;28;20228;-79
2023/08/03 08:53:10;;;;;;;2.23;1.30;;;16.50;99.90;;;;;;5085545;28;20234;-79
2023/08/03 08:55:36;;;;;;;3.13;2.63;;;16.50;99.90;;;;;;5085579;28;20217;-79
2023/08/03 08:58:03;;;;;;;1.37;1.03;;;16.50;99.90;;;;;;5067049;28;20219;-80
2023/08/03 09:00:30;;;;;;;1.07;0.97;;;16.50;99.90;;;;;;5085472;28;20229;-79
2023/08/03 09:03:00;;;;;;;2.10;0.90;;;16.50;99.90;;;;;;5068445;28;22294;-79
2023/08/03 09:05:28;;;;;;;0.90;0.80;;;16.50;99.90;;;;;;5068738;28;20305;-79
2023/08/03 09:08:04;;;;;;;1.10;1.00;;;16.50;99.90;;;;;;5084805;28;20240;-80
2023/08/03 09:10:31;;;;;;;2.27;1.30;;;16.60;99.90;;;;;;5087499;28;20237;-79
2023/08/03 09:12:58;;;;;;;2.57;1.10;;;16.60;99.90;;;;;;5081999;28;21392;-79
2023/08/03 09:15:39;;;;;;;1.50;1.40;;;16.60;99.90;;;;;;5070598;28;20271;-79
2023/08/03 09:18:06;;;;;;;2.77;1.30;;;16.70;99.90;;;;;;5087410;28;20267;-79
2023/08/03 09:20:33;;;;;;;2.17;1.60;;;16.80;99.90;;;;;;5066446;28;20233;-79
2023/08/03 09:23:01;;;;;;;2.43;2.00;;;16.80;99.90;;;;;;5064005;28;20212;-80
2023/08/03 09:25:29;;;;;;;1.60;1.50;;;16.90;99.90;;;;;;5061849;28;20312;-79
2023/08/03 09:27:57;;;;;;;4.87;2.60;;;16.90;99.90;;;;;;5084088;28;20607;-79
2023/08/03 09:30:25;;;;;;;3.60;2.93;;;17.00;99.90;;;;;;5081099;28;20224;-79
2023/08/03 09:32:52;;;;;;;5.20;3.20;;;17.20;99.90;;;;;;5079998;28;20218;-79
2023/08/03 09:35:20;;;;;;;3.57;3.27;;;17.30;99.90;;;;;;5079315;28;20216;-79
2023/08/03 09:37:48;;;;;;;3.57;3.10;;;17.60;99.90;;;;;;5080517;28;20225;-79
2023/08/03 09:40:17;;;;;;;3.97;3.37;;;17.80;99.90;;;;;;5083417;28;20229;-79
2023/08/03 09:42:46;;;;;;;5.00;3.10;;;18.00;99.90;;;;;;5079439;28;20702;-79
2023/08/03 09:45:14;;;;;;;6.33;3.13;;;18.20;99.90;;;;;;5084585;28;20218;-79
2023/08/03 09:47:41;;;;;;;5.17;3.77;;;18.30;99.90;;;;;;5081044;28;20268;-79
2023/08/03 09:50:09;;;;;;;4.70;2.90;;;18.50;99.90;;;;;;5081894;28;20230;-79
2023/08/03 09:52:42;;;;;;;4.40;3.40;;;18.60;99.90;;;;;;5062994;28;20246;-79
2023/08/03 09:55:13;;;;;;;4.67;2.80;;;18.80;99.90;;;;;;5064043;28;20223;-79
2023/08/03 09:57:41;;;;;;;3.90;2.57;;;18.90;99.90;;;;;;5083763;28;20215;-80
2023/08/03 10:00:13;;;;;;;4.27;2.73;;;19.10;99.90;;;;;;5085525;28;20234;-80
2023/08/03 10:02:45;;;;;;;3.30;2.47;;;19.20;99.90;;;;;;5083672;28;20531;-80
2023/08/03 10:05:18;;;;;;;3.67;1.90;;;19.30;99.90;;;;;;5084665;28;20226;-80
2023/08/03 10:07:53;;;;;;;2.87;1.40;;;19.40;99.90;;;;;;5066789;28;20235;-80
2023/08/03 10:10:22;;;;;;;2.57;1.20;;;19.40;99.90;;;;;;5066675;28;20234;-80
2023/08/03 10:12:54;;;;;;;1.30;1.10;;;19.40;99.90;;;;;;5061367;28;20225;-80
2023/08/03 10:15:23;;;;;;;2.57;1.13;;;19.40;99.90;;;;;;5081155;28;20257;-80
2023/08/03 10:17:50;;;;;;;3.10;1.17;;;19.30;99.90;;;;;;5088734;28;20226;-80
2023/08/03 10:20:17;;;;;;;1.70;1.03;;;19.30;99.90;;;;;;5066540;28;20269;-80
2023/08/03 10:23:06;;;;;;;1.20;0.97;;;19.30;99.90;;;;;;5088848;28;20245;-80
2023/08/03 10:25:33;;;;;;;1.80;1.03;;;19.20;99.90;;;;;;5060281;28;20223;-80
2023/08/03 10:28:13;;;;;;;4.93;1.20;;;19.20;99.90;;;;;;5084001;28;20424;-80
2023/08/03 10:31:11;;;;;;;5.83;1.70;;;19.20;99.90;;;;;;5067584;28;20221;-80
2023/08/03 10:34:03;;;;;;;4.17;1.33;;;19.10;99.90;;;;;;5082023;28;20221;-80
2023/08/03 10:36:46;;;;;;;4.87;1.50;;;18.90;99.90;;;;;;5083144;28;20230;-80
2023/08/03 10:39:15;;;;;;;3.50;1.60;;;18.80;99.90;;;;;;5084703;28;20218;-80
2023/08/03 10:44:26;;;;;;;3.80;1.43;;;18.40;99.90;;;;;;5040394;28;20277;-84
2023/08/03 10:46:56;;;;;;;3.90;1.90;;;18.20;99.90;;;;;;5058782;28;20842;-83
2023/08/03 10:49:48;;;;;;;3.50;1.80;;;18.00;99.90;;;;;;5044687;28;20224;-82
2023/08/03 10:52:17;;;;;;;3.33;1.80;;;17.80;99.90;;;;;;5040650;28;20896;-82
2023/08/03 10:54:45;;;;;;;3.37;1.83;;;17.80;99.90;;;;;;5035341;28;20259;-84
2023/08/03 10:57:13;;;;;;;4.27;2.10;;;17.60;99.90;;;;;;5031833;28;20250;-82
2023/08/03 10:59:41;;;;;;;2.73;1.93;;;17.50;99.90;;;;;;5053990;28;20223;-83
2023/08/03 11:02:14;;;;;;;2.80;1.80;;;17.50;99.90;;;;;;5050860;28;20733;-82
2023/08/03 11:04:42;;;;;;;6.90;2.30;;;17.40;99.90;;;;;;5050275;28;20231;-82
2023/08/03 11:07:10;;;;;;;2.73;2.10;;;17.40;99.90;;;;;;5041326;28;20231;-82
2023/08/03 11:09:38;;;;;;;5.17;1.80;;;17.40;99.90;;;;;;5039646;28;20585;-82
2023/08/03 11:12:07;;;;;;;3.80;2.20;;;17.40;99.90;;;;;;5036127;28;20330;-83
2023/08/03 11:14:35;;;;;;;9.07;3.30;;;17.50;99.90;;;;;;5036450;28;20216;-82
2023/08/03 11:17:02;;;;;;;16.27;3.97;;;17.50;99.90;;;;;;5037069;28;21089;-82
2023/08/03 11:19:33;;;;;;;538.10;47.77;;;17.60;99.90;;;;;;5055380;28;20227;-84
2023/08/03 11:22:01;;;;;;;29.13;5.47;;;17.80;99.90;;;;;;5040015;28;20285;-82
2023/08/03 11:24:31;;;;;;;104.77;10.77;;;18.00;99.90;;;;;;5039138;28;20756;-84
2023/08/03 11:26:59;;;;;;;15.07;4.00;;;18.30;99.90;;;;;;5050191;28;20289;-82
2023/08/03 11:29:26;;;;;;;6.90;3.33;;;18.70;99.90;;;;;;5038256;28;20247;-81
2023/08/03 11:31:53;;;;;;;77.60;8.67;;;19.10;99.90;;;;;;5038850;28;20231;-81
2023/08/03 11:34:24;;;;;;;11.07;4.15;;;19.50;99.90;;;;;;5038109;28;20240;-82
2023/08/03 11:36:53;;;;;;;89.45;8.90;;;19.90;99.90;;;;;;5039278;28;20322;-81
2023/08/03 11:39:20;;;;;;;2.83;2.00;;;20.40;99.90;;;;;;5034917;28;20224;-82
2023/08/03 11:41:48;;;;;;;3.15;2.10;;;20.80;99.90;;;;;;5044440;28;20512;-82
2023/08/03 11:44:15;;;;;;;2.10;1.83;;;21.20;99.90;;;;;;5052830;28;20215;-82
2023/08/03 11:46:42;;;;;;;3.28;1.40;;;21.40;99.90;;;;;;5053244;28;20638;-82
2023/08/03 11:49:13;;;;;;;1.90;1.45;;;21.70;99.90;;;;;;5052230;28;20845;-82
2023/08/03 11:51:41;;;;;;;2.90;1.40;;;21.80;99.90;;;;;;5072945;28;20327;-83
2023/08/03 11:54:10;;;;;;;2.17;1.17;;;21.90;99.90;;;;;;5070522;28;20228;-81
2023/08/03 11:56:38;;;;;;;2.40;1.67;;;21.90;99.90;;;;;;5056615;28;20238;-82
2023/08/03 11:59:04;;;;;;;9.27;2.63;;;21.80;99.90;;;;;;5054217;28;20232;-83
2023/08/03 12:01:31;;;;;;;7.65;2.58;;;21.70;99.90;;;;;;5052477;28;20223;-84
2023/08/03 12:04:05;;;;;;;3.42;1.67;;;21.40;99.90;;;;;;5062586;28;20235;-84
2023/08/03 12:06:44;;;;;;;2.33;1.03;;;21.20;99.90;;;;;;5060433;28;20218;-83
2023/08/03 12:09:18;;;;;;;1.57;0.83;;;20.70;99.90;;;;;;5068326;28;20268;-82
2023/08/03 12:11:47;;;;;;;3.67;0.90;;;20.30;99.90;;;;;;5072769;28;20246;-83
2023/08/03 12:14:14;;;;;;;1.50;1.10;;;20.00;99.90;;;;;;5059718;28;20229;-82
2023/08/03 12:16:41;;;;;;;2.03;0.90;;;19.60;99.90;;;;;;5059427;28;20288;-82
2023/08/03 12:19:09;;;;;;;1.33;0.93;;;19.30;99.90;;;;;;5057681;28;20238;-81
2023/08/03 12:21:36;;;;;;;1.40;1.07;;;19.00;99.90;;;;;;5073790;28;20316;-82
2023/08/03 12:24:04;;;;;;;2.37;1.00;;;18.80;99.90;;;;;;5054886;28;20291;-82
2023/08/03 12:26:32;;;;;;;2.73;1.00;;;18.70;99.90;;;;;;5057350;28;20230;-82
2023/08/03 12:28:58;;;;;;;2.03;1.00;;;18.60;99.90;;;;;;5060634;28;20265;-81
2023/08/03 12:31:25;;;;;;;1.50;1.03;;;18.50;99.90;;;;;;5059073;28;20245;-84
2023/08/03 12:33:52;;;;;;;1.83;1.17;;;18.50;99.90;;;;;;5058266;28;20249;-83
2023/08/03 12:36:19;;;;;;;3.03;1.20;;;18.40;99.90;;;;;;5059675;28;20238;-84
2023/08/03 12:38:46;;;;;;;1.83;1.10;;;18.40;99.90;;;;;;5067810;28;20219;-84
2023/08/03 12:41:13;;;;;;;4.23;1.20;;;18.40;99.90;;;;;;5061467;28;20222;-82
2023/08/03 12:43:41;;;;;;;1.80;1.40;;;18.30;99.90;;;;;;5054243;28;20233;-82
2023/08/03 12:46:08;;;;;;;3.73;1.50;;;18.30;99.90;;;;;;5053145;28;20794;-81
2023/08/03 12:48:35;;;;;;;2.43;1.50;;;18.40;99.90;;;;;;5059995;28;20775;-82
2023/08/03 12:51:02;;;;;;;4.27;1.43;;;18.40;99.90;;;;;;5077972;28;20222;-82
2023/08/03 12:53:28;;;;;;;2.53;1.63;;;18.60;99.90;;;;;;5079685;28;20230;-82